sensor_id;sensor_type;location;lat;lon;timestamp;pressure;altitude;pressure_sealevel;temperature;humidity
35892;BME280;21993;42.672;23.296;2022-07-23T00:00:55;94973.34;;;25.54;46.43
35892;BME280;21993;42.672;23.296;2022-07-23T00:03:20;94976.84;;;25.55;46.66
35892;BME280;21993;42.672;23.296;2022-07-23T00:05:46;94973.13;;;25.56;46.46
35892;BME280;21993;42.672;23.296;2022-07-23T00:08:11;94971.56;;;25.48;47.06
35892;BME280;21993;42.672;23.296;2022-07-23T00:10:37;94974.00;;;25.50;46.75
35892;BME280;21993;42.672;23.296;2022-07-23T00:13:03;94980.44;;;25.49;46.49
35892;BME280;21993;42.672;23.296;2022-07-23T00:15:28;94988.94;;;25.46;47.24
35892;BME280;21993;42.672;23.296;2022-07-23T00:17:54;94978.63;;;25.43;46.98
35892;BME280;21993;42.672;23.296;2022-07-23T00:20:19;94974.81;;;25.32;47.81
35892;BME280;21993;42.672;23.296;2022-07-23T00:22:49;94982.09;;;25.25;48.20
35892;BME280;21993;42.672;23.296;2022-07-23T00:25:15;94976.44;;;25.33;47.41
35892;BME280;21993;42.672;23.296;2022-07-23T00:27:41;94979.50;;;25.37;47.49
35892;BME280;21993;42.672;23.296;2022-07-23T00:30:07;94984.94;;;25.30;47.38
35892;BME280;21993;42.672;23.296;2022-07-23T00:32:46;94980.06;;;25.20;48.17
35892;BME280;21993;42.672;23.296;2022-07-23T00:35:12;94992.94;;;25.12;48.31
35892;BME280;21993;42.672;23.296;2022-07-23T00:37:37;94986.75;;;25.11;48.36
35892;BME280;21993;42.672;23.296;2022-07-23T00:40:03;94994.84;;;25.05;48.25
35892;BME280;21993;42.672;23.296;2022-07-23T00:42:31;94989.06;;;25.08;48.18
35892;BME280;21993;42.672;23.296;2022-07-23T00:44:56;94987.91;;;24.90;48.79
35892;BME280;21993;42.672;23.296;2022-07-23T00:47:22;94985.72;;;24.81;48.56
35892;BME280;21993;42.672;23.296;2022-07-23T00:49:47;94980.97;;;24.76;48.89
35892;BME280;21993;42.672;23.296;2022-07-23T00:52:13;94987.19;;;24.70;48.80
35892;BME280;21993;42.672;23.296;2022-07-23T00:54:38;94983.28;;;24.73;49.13
35892;BME280;21993;42.672;23.296;2022-07-23T00:57:04;94980.41;;;24.67;48.86
35892;BME280;21993;42.672;23.296;2022-07-23T00:59:30;94990.91;;;24.76;49.01
35892;BME280;21993;42.672;23.296;2022-07-23T01:01:55;94985.91;;;24.79;48.69
35892;BME280;21993;42.672;23.296;2022-07-23T01:04:21;94990.69;;;24.77;48.14
35892;BME280;21993;42.672;23.296;2022-07-23T01:06:46;94977.50;;;24.69;49.22
35892;BME280;21993;42.672;23.296;2022-07-23T01:09:12;94986.00;;;24.66;48.67
35892;BME280;21993;42.672;23.296;2022-07-23T01:11:38;94985.59;;;24.62;48.52
35892;BME280;21993;42.672;23.296;2022-07-23T01:14:17;94979.19;;;24.63;48.24
35892;BME280;21993;42.672;23.296;2022-07-23T01:16:44;94979.41;;;24.62;48.21
35892;BME280;21993;42.672;23.296;2022-07-23T01:19:10;94980.84;;;24.64;48.01
35892;BME280;21993;42.672;23.296;2022-07-23T01:21:38;94976.50;;;24.63;47.76
35892;BME280;21993;42.672;23.296;2022-07-23T01:24:04;94971.00;;;24.52;48.80
35892;BME280;21993;42.672;23.296;2022-07-23T01:26:30;94980.13;;;24.44;48.90
35892;BME280;21993;42.672;23.296;2022-07-23T01:28:55;94966.69;;;24.51;49.28
35892;BME280;21993;42.672;23.296;2022-07-23T01:31:21;94979.91;;;24.46;48.65
35892;BME280;21993;42.672;23.296;2022-07-23T01:33:46;94980.53;;;24.48;49.17
35892;BME280;21993;42.672;23.296;2022-07-23T01:36:12;94978.50;;;24.36;48.67
35892;BME280;21993;42.672;23.296;2022-07-23T01:38:37;94970.47;;;24.36;48.04
35892;BME280;21993;42.672;23.296;2022-07-23T01:41:02;94977.09;;;24.27;48.34
35892;BME280;21993;42.672;23.296;2022-07-23T01:43:28;94976.28;;;24.20;49.10
35892;BME280;21993;42.672;23.296;2022-07-23T01:45:53;94973.84;;;24.12;49.10
35892;BME280;21993;42.672;23.296;2022-07-23T01:48:19;94973.69;;;24.07;49.28
35892;BME280;21993;42.672;23.296;2022-07-23T01:50:46;94971.22;;;24.05;49.48
35892;BME280;21993;42.672;23.296;2022-07-23T01:53:12;94974.28;;;24.02;50.51
35892;BME280;21993;42.672;23.296;2022-07-23T01:55:37;94969.34;;;24.06;49.74
35892;BME280;21993;42.672;23.296;2022-07-23T01:58:03;94973.91;;;23.99;50.21
35892;BME280;21993;42.672;23.296;2022-07-23T02:00:28;94975.31;;;24.08;49.73
35892;BME280;21993;42.672;23.296;2022-07-23T02:02:54;94973.91;;;24.05;49.86
35892;BME280;21993;42.672;23.296;2022-07-23T02:05:19;94975.75;;;24.05;49.88
35892;BME280;21993;42.672;23.296;2022-07-23T02:07:45;94972.88;;;24.00;50.46
35892;BME280;21993;42.672;23.296;2022-07-23T02:10:10;94968.75;;;23.97;50.63
35892;BME280;21993;42.672;23.296;2022-07-23T02:12:36;94982.34;;;24.02;50.35
35892;BME280;21993;42.672;23.296;2022-07-23T02:15:01;94978.63;;;24.03;50.42
35892;BME280;21993;42.672;23.296;2022-07-23T02:17:27;94978.25;;;24.00;50.53
35892;BME280;21993;42.672;23.296;2022-07-23T02:19:52;94975.19;;;23.83;50.72
35892;BME280;21993;42.672;23.296;2022-07-23T02:22:18;94976.81;;;23.91;50.53
35892;BME280;21993;42.672;23.296;2022-07-23T02:24:43;94972.28;;;23.91;50.86
35892;BME280;21993;42.672;23.296;2022-07-23T02:27:08;94977.00;;;23.96;50.42
35892;BME280;21993;42.672;23.296;2022-07-23T02:29:34;94971.44;;;23.97;50.41
35892;BME280;21993;42.672;23.296;2022-07-23T02:31:59;94975.13;;;23.96;50.78
35892;BME280;21993;42.672;23.296;2022-07-23T02:34:25;94973.94;;;23.85;51.45
35892;BME280;21993;42.672;23.296;2022-07-23T02:36:50;94976.25;;;23.75;51.61
35892;BME280;21993;42.672;23.296;2022-07-23T02:39:16;94982.25;;;23.57;51.98
35892;BME280;21993;42.672;23.296;2022-07-23T02:41:41;94980.81;;;23.48;51.81
35892;BME280;21993;42.672;23.296;2022-07-23T02:44:06;94984.53;;;23.47;52.18
35892;BME280;21993;42.672;23.296;2022-07-23T02:46:32;94983.69;;;23.53;52.20
35892;BME280;21993;42.672;23.296;2022-07-23T02:48:57;94991.31;;;23.50;52.35
35892;BME280;21993;42.672;23.296;2022-07-23T02:51:23;94994.81;;;23.37;52.48
35892;BME280;21993;42.672;23.296;2022-07-23T02:53:48;94993.00;;;23.31;53.03
35892;BME280;21993;42.672;23.296;2022-07-23T02:56:14;94988.25;;;23.20;52.67
35892;BME280;21993;42.672;23.296;2022-07-23T02:58:39;94992.16;;;23.17;52.88
35892;BME280;21993;42.672;23.296;2022-07-23T03:01:05;94993.81;;;23.12;52.72
35892;BME280;21993;42.672;23.296;2022-07-23T03:03:30;94993.41;;;23.08;52.83
35892;BME280;21993;42.672;23.296;2022-07-23T03:05:56;95006.59;;;23.16;52.42
35892;BME280;21993;42.672;23.296;2022-07-23T03:08:21;95008.88;;;23.06;52.88
35892;BME280;21993;42.672;23.296;2022-07-23T03:10:47;95010.94;;;23.04;53.01
35892;BME280;21993;42.672;23.296;2022-07-23T03:13:12;95002.88;;;22.97;52.69
35892;BME280;21993;42.672;23.296;2022-07-23T03:15:38;95011.94;;;22.90;53.44
35892;BME280;21993;42.672;23.296;2022-07-23T03:18:03;95013.59;;;22.91;53.46
35892;BME280;21993;42.672;23.296;2022-07-23T03:20:29;95013.75;;;22.83;53.72
35892;BME280;21993;42.672;23.296;2022-07-23T03:22:54;95017.06;;;22.85;53.49
35892;BME280;21993;42.672;23.296;2022-07-23T03:25:20;95016.84;;;22.86;53.73
35892;BME280;21993;42.672;23.296;2022-07-23T03:27:45;95019.34;;;22.94;53.88
35892;BME280;21993;42.672;23.296;2022-07-23T03:30:11;95020.59;;;22.92;53.48
35892;BME280;21993;42.672;23.296;2022-07-23T03:32:37;95023.88;;;22.94;53.58
35892;BME280;21993;42.672;23.296;2022-07-23T03:35:03;95015.22;;;22.92;53.69
35892;BME280;21993;42.672;23.296;2022-07-23T03:37:29;95024.88;;;22.86;53.81
35892;BME280;21993;42.672;23.296;2022-07-23T03:39:54;95024.72;;;22.88;54.26
35892;BME280;21993;42.672;23.296;2022-07-23T03:42:20;95027.78;;;22.85;54.50
35892;BME280;21993;42.672;23.296;2022-07-23T03:44:45;95029.81;;;22.83;54.28
35892;BME280;21993;42.672;23.296;2022-07-23T03:47:11;95028.56;;;22.79;54.28
35892;BME280;21993;42.672;23.296;2022-07-23T03:49:36;95032.25;;;22.71;54.41
35892;BME280;21993;42.672;23.296;2022-07-23T03:52:02;95028.97;;;22.82;54.37
35892;BME280;21993;42.672;23.296;2022-07-23T03:54:28;95031.91;;;22.94;53.99
35892;BME280;21993;42.672;23.296;2022-07-23T03:56:53;95029.66;;;22.91;54.05
35892;BME280;21993;42.672;23.296;2022-07-23T03:59:19;95027.19;;;22.96;54.09
35892;BME280;21993;42.672;23.296;2022-07-23T04:01:44;95031.50;;;22.90;53.61
35892;BME280;21993;42.672;23.296;2022-07-23T04:04:10;95035.97;;;22.83;54.03
35892;BME280;21993;42.672;23.296;2022-07-23T04:06:35;95028.41;;;22.93;54.28
35892;BME280;21993;42.672;23.296;2022-07-23T04:09:02;95027.38;;;22.94;53.93
35892;BME280;21993;42.672;23.296;2022-07-23T04:11:27;95029.25;;;23.00;53.33
35892;BME280;21993;42.672;23.296;2022-07-23T04:13:53;95028.63;;;23.05;53.75
35892;BME280;21993;42.672;23.296;2022-07-23T04:16:18;95034.81;;;23.06;53.86
35892;BME280;21993;42.672;23.296;2022-07-23T04:18:44;95039.75;;;23.09;53.60
35892;BME280;21993;42.672;23.296;2022-07-23T04:21:09;95043.47;;;23.14;53.52
35892;BME280;21993;42.672;23.296;2022-07-23T04:23:35;95026.78;;;23.19;53.26
35892;BME280;21993;42.672;23.296;2022-07-23T04:26:01;95031.91;;;23.20;53.23
35892;BME280;21993;42.672;23.296;2022-07-23T04:28:26;95041.41;;;23.16;53.77
35892;BME280;21993;42.672;23.296;2022-07-23T04:30:51;95037.94;;;23.22;53.22
35892;BME280;21993;42.672;23.296;2022-07-23T04:33:17;95048.00;;;23.34;52.81
35892;BME280;21993;42.672;23.296;2022-07-23T04:35:42;95039.97;;;23.34;53.20
35892;BME280;21993;42.672;23.296;2022-07-23T04:38:08;95039.97;;;23.34;52.62
35892;BME280;21993;42.672;23.296;2022-07-23T04:40:33;95041.03;;;23.39;52.00
35892;BME280;21993;42.672;23.296;2022-07-23T04:42:59;95044.09;;;23.43;51.75
35892;BME280;21993;42.672;23.296;2022-07-23T04:45:24;95043.50;;;23.41;52.21
35892;BME280;21993;42.672;23.296;2022-07-23T04:47:50;95042.25;;;23.43;52.27
35892;BME280;21993;42.672;23.296;2022-07-23T04:50:16;95044.31;;;23.48;51.59
35892;BME280;21993;42.672;23.296;2022-07-23T04:52:49;95047.00;;;23.54;52.03
35892;BME280;21993;42.672;23.296;2022-07-23T04:55:14;95047.22;;;23.59;51.68
35892;BME280;21993;42.672;23.296;2022-07-23T04:57:40;95050.31;;;23.63;52.13
35892;BME280;21993;42.672;23.296;2022-07-23T05:00:07;95050.94;;;23.65;51.83
35892;BME280;21993;42.672;23.296;2022-07-23T05:02:32;95055.47;;;23.65;51.60
35892;BME280;21993;42.672;23.296;2022-07-23T05:04:58;95049.69;;;23.61;51.72
35892;BME280;21993;42.672;23.296;2022-07-23T05:07:23;95048.19;;;23.85;50.99
35892;BME280;21993;42.672;23.296;2022-07-23T05:09:49;95052.13;;;23.82;51.29
35892;BME280;21993;42.672;23.296;2022-07-23T05:12:14;95050.50;;;23.88;50.44
35892;BME280;21993;42.672;23.296;2022-07-23T05:14:40;95044.28;;;23.87;50.54
35892;BME280;21993;42.672;23.296;2022-07-23T05:17:05;95064.28;;;23.78;50.73
35892;BME280;21993;42.672;23.296;2022-07-23T05:19:33;95054.22;;;23.74;52.01
35892;BME280;21993;42.672;23.296;2022-07-23T05:21:58;95056.28;;;23.65;52.17
35892;BME280;21993;42.672;23.296;2022-07-23T05:24:24;95060.41;;;23.74;51.39
35892;BME280;21993;42.672;23.296;2022-07-23T05:26:50;95056.69;;;23.89;51.21
35892;BME280;21993;42.672;23.296;2022-07-23T05:29:15;95059.50;;;24.07;50.89
35892;BME280;21993;42.672;23.296;2022-07-23T05:31:40;95053.94;;;24.08;50.64
35892;BME280;21993;42.672;23.296;2022-07-23T05:34:06;95054.56;;;24.04;51.10
35892;BME280;21993;42.672;23.296;2022-07-23T05:36:32;95052.81;;;24.29;50.53
35892;BME280;21993;42.672;23.296;2022-07-23T05:38:58;95055.50;;;24.42;49.91
35892;BME280;21993;42.672;23.296;2022-07-23T05:41:23;95054.91;;;24.40;49.51
35892;BME280;21993;42.672;23.296;2022-07-23T05:43:49;95057.59;;;24.40;49.68
35892;BME280;21993;42.672;23.296;2022-07-23T05:46:14;95064.00;;;24.33;49.74
35892;BME280;21993;42.672;23.296;2022-07-23T05:48:40;95057.16;;;24.37;49.62
35892;BME280;21993;42.672;23.296;2022-07-23T05:51:06;95049.94;;;24.31;49.96
35892;BME280;21993;42.672;23.296;2022-07-23T05:53:33;95058.63;;;24.39;49.96
35892;BME280;21993;42.672;23.296;2022-07-23T05:55:59;95054.44;;;24.50;50.45
35892;BME280;21993;42.672;23.296;2022-07-23T05:58:25;95056.81;;;24.71;50.41
35892;BME280;21993;42.672;23.296;2022-07-23T06:00:50;95059.28;;;24.73;50.32
35892;BME280;21993;42.672;23.296;2022-07-23T06:06:37;95060.03;;;24.87;50.59
35892;BME280;21993;42.672;23.296;2022-07-23T06:09:03;95046.81;;;24.85;50.48
35892;BME280;21993;42.672;23.296;2022-07-23T06:11:28;95050.03;;;25.07;48.81
35892;BME280;21993;42.672;23.296;2022-07-23T06:13:54;95050.06;;;24.94;49.63
35892;BME280;21993;42.672;23.296;2022-07-23T06:19:42;95043.94;;;25.18;49.21
35892;BME280;21993;42.672;23.296;2022-07-23T06:22:07;95047.22;;;25.20;49.05
35892;BME280;21993;42.672;23.296;2022-07-23T06:24:32;95048.16;;;25.39;48.40
35892;BME280;21993;42.672;23.296;2022-07-23T06:26:58;95046.28;;;25.40;48.12
35892;BME280;21993;42.672;23.296;2022-07-23T06:29:23;95045.28;;;25.59;48.27
35892;BME280;21993;42.672;23.296;2022-07-23T06:31:49;95047.69;;;25.67;48.03
35892;BME280;21993;42.672;23.296;2022-07-23T06:34:14;95042.44;;;25.79;47.26
35892;BME280;21993;42.672;23.296;2022-07-23T06:36:40;95047.94;;;25.91;46.71
35892;BME280;21993;42.672;23.296;2022-07-23T06:39:05;95047.41;;;26.00;46.69
35892;BME280;21993;42.672;23.296;2022-07-23T06:41:30;95058.00;;;26.14;45.53
35892;BME280;21993;42.672;23.296;2022-07-23T06:43:56;95043.59;;;26.26;45.35
35892;BME280;21993;42.672;23.296;2022-07-23T06:46:21;95044.72;;;26.37;45.32
35892;BME280;21993;42.672;23.296;2022-07-23T06:48:47;95034.56;;;26.39;45.01
35892;BME280;21993;42.672;23.296;2022-07-23T06:51:12;95036.38;;;26.45;45.28
35892;BME280;21993;42.672;23.296;2022-07-23T06:53:38;95036.50;;;26.69;44.59
35892;BME280;21993;42.672;23.296;2022-07-23T06:56:03;95040.28;;;26.79;44.58
35892;BME280;21993;42.672;23.296;2022-07-23T06:58:29;95028.34;;;26.87;44.01
35892;BME280;21993;42.672;23.296;2022-07-23T07:00:54;95032.41;;;26.78;44.42
35892;BME280;21993;42.672;23.296;2022-07-23T07:03:22;95024.38;;;26.89;44.80
35892;BME280;21993;42.672;23.296;2022-07-23T07:05:47;95031.63;;;26.89;44.98
35892;BME280;21993;42.672;23.296;2022-07-23T07:08:13;95028.38;;;26.99;45.19
35892;BME280;21993;42.672;23.296;2022-07-23T07:10:38;95028.47;;;27.10;45.05
35892;BME280;21993;42.672;23.296;2022-07-23T07:13:04;95027.88;;;27.08;44.89
35892;BME280;21993;42.672;23.296;2022-07-23T07:15:29;95025.56;;;27.24;44.16
35892;BME280;21993;42.672;23.296;2022-07-23T07:17:54;95017.38;;;27.30;44.56
35892;BME280;21993;42.672;23.296;2022-07-23T07:20:20;95018.22;;;27.42;44.27
35892;BME280;21993;42.672;23.296;2022-07-23T07:22:45;95015.72;;;27.41;44.66
35892;BME280;21993;42.672;23.296;2022-07-23T07:25:11;95017.66;;;27.52;44.22
35892;BME280;21993;42.672;23.296;2022-07-23T07:27:36;95007.25;;;27.67;44.08
35892;BME280;21993;42.672;23.296;2022-07-23T07:30:03;95008.88;;;27.80;43.44
35892;BME280;21993;42.672;23.296;2022-07-23T07:32:29;95008.53;;;28.00;43.13
35892;BME280;21993;42.672;23.296;2022-07-23T07:34:58;95006.16;;;28.03;42.62
35892;BME280;21993;42.672;23.296;2022-07-23T07:37:23;95009.78;;;28.21;41.82
35892;BME280;21993;42.672;23.296;2022-07-23T07:39:48;95006.13;;;28.15;42.22
35892;BME280;21993;42.672;23.296;2022-07-23T07:42:14;95007.56;;;28.29;42.30
35892;BME280;21993;42.672;23.296;2022-07-23T07:44:39;95003.34;;;28.34;42.41
35892;BME280;21993;42.672;23.296;2022-07-23T07:47:05;95005.75;;;28.47;42.26
35892;BME280;21993;42.672;23.296;2022-07-23T07:49:30;95005.69;;;28.58;42.06
35892;BME280;21993;42.672;23.296;2022-07-23T07:51:56;95008.13;;;28.72;41.48
35892;BME280;21993;42.672;23.296;2022-07-23T07:54:21;95008.56;;;28.80;40.77
35892;BME280;21993;42.672;23.296;2022-07-23T07:56:47;94998.69;;;28.86;41.17
35892;BME280;21993;42.672;23.296;2022-07-23T07:59:13;94996.44;;;28.95;40.82
35892;BME280;21993;42.672;23.296;2022-07-23T08:01:40;94994.00;;;29.10;40.46
35892;BME280;21993;42.672;23.296;2022-07-23T08:04:05;94996.13;;;29.25;40.89
35892;BME280;21993;42.672;23.296;2022-07-23T08:06:31;94985.25;;;29.36;40.52
35892;BME280;21993;42.672;23.296;2022-07-23T08:08:56;94990.34;;;29.50;39.84
35892;BME280;21993;42.672;23.296;2022-07-23T08:11:22;94984.13;;;29.49;39.62
35892;BME280;21993;42.672;23.296;2022-07-23T08:13:47;94991.34;;;29.60;39.98
35892;BME280;21993;42.672;23.296;2022-07-23T08:16:13;94990.31;;;29.83;39.13
35892;BME280;21993;42.672;23.296;2022-07-23T08:18:38;94991.53;;;29.92;38.42
35892;BME280;21993;42.672;23.296;2022-07-23T08:21:04;94985.06;;;29.93;37.69
35892;BME280;21993;42.672;23.296;2022-07-23T08:23:31;94982.75;;;30.02;37.84
35892;BME280;21993;42.672;23.296;2022-07-23T08:25:57;94982.66;;;30.14;38.00
35892;BME280;21993;42.672;23.296;2022-07-23T08:28:22;94980.16;;;30.29;37.44
35892;BME280;21993;42.672;23.296;2022-07-23T08:30:48;94973.50;;;30.42;36.95
35892;BME280;21993;42.672;23.296;2022-07-23T08:33:16;94968.78;;;30.54;37.89
35892;BME280;21993;42.672;23.296;2022-07-23T08:35:46;94975.47;;;30.68;37.81
35892;BME280;21993;42.672;23.296;2022-07-23T08:38:15;94980.75;;;30.80;37.16
35892;BME280;21993;42.672;23.296;2022-07-23T08:40:42;94970.53;;;30.87;36.97
35892;BME280;21993;42.672;23.296;2022-07-23T08:43:14;94979.84;;;30.96;37.31
35892;BME280;21993;42.672;23.296;2022-07-23T08:45:42;94972.91;;;31.10;36.31
35892;BME280;21993;42.672;23.296;2022-07-23T08:48:12;94972.16;;;31.15;37.08
35892;BME280;21993;42.672;23.296;2022-07-23T08:50:42;94972.81;;;31.27;37.32
35892;BME280;21993;42.672;23.296;2022-07-23T08:53:09;94970.56;;;31.46;36.43
35892;BME280;21993;42.672;23.296;2022-07-23T08:55:35;94958.94;;;31.56;35.49
35892;BME280;21993;42.672;23.296;2022-07-23T08:58:01;94955.69;;;31.59;35.49
35892;BME280;21993;42.672;23.296;2022-07-23T09:00:26;94965.19;;;31.56;36.16
35892;BME280;21993;42.672;23.296;2022-07-23T09:02:52;94956.56;;;31.70;35.73
35892;BME280;21993;42.672;23.296;2022-07-23T09:05:18;94958.03;;;31.77;34.47
35892;BME280;21993;42.672;23.296;2022-07-23T09:08:14;94950.72;;;31.83;34.25
35892;BME280;21993;42.672;23.296;2022-07-23T09:10:58;94954.81;;;31.80;34.43
35892;BME280;21993;42.672;23.296;2022-07-23T09:16:06;94956.00;;;32.00;35.70
35892;BME280;21993;42.672;23.296;2022-07-23T09:21:08;94953.94;;;32.27;34.62
35892;BME280;21993;42.672;23.296;2022-07-23T09:23:37;94951.78;;;32.29;34.42
35892;BME280;21993;42.672;23.296;2022-07-23T09:26:24;94949.16;;;32.39;34.38
35892;BME280;21993;42.672;23.296;2022-07-23T09:31:30;94951.38;;;32.58;34.14
35892;BME280;21993;42.672;23.296;2022-07-23T09:34:10;94954.41;;;32.76;33.13
35892;BME280;21993;42.672;23.296;2022-07-23T09:36:36;94942.75;;;32.81;33.04
35892;BME280;21993;42.672;23.296;2022-07-23T09:39:02;94945.25;;;32.88;33.14
35892;BME280;21993;42.672;23.296;2022-07-23T09:41:35;94932.44;;;32.88;33.22
35892;BME280;21993;42.672;23.296;2022-07-23T09:44:10;94925.63;;;32.96;33.07
35892;BME280;21993;42.672;23.296;2022-07-23T09:46:37;94934.38;;;33.08;32.91
35892;BME280;21993;42.672;23.296;2022-07-23T09:49:16;94930.81;;;33.13;32.89
35892;BME280;21993;42.672;23.296;2022-07-23T09:54:35;94931.38;;;33.35;31.28
35892;BME280;21993;42.672;23.296;2022-07-23T09:57:05;94926.25;;;33.49;31.22
35892;BME280;21993;42.672;23.296;2022-07-23T09:59:34;94926.22;;;33.59;30.11
35892;BME280;21993;42.672;23.296;2022-07-23T10:02:00;94923.75;;;33.63;30.16
35892;BME280;21993;42.672;23.296;2022-07-23T10:04:30;94916.69;;;33.67;28.05
35892;BME280;21993;42.672;23.296;2022-07-23T10:06:58;94918.56;;;33.76;28.45
35892;BME280;21993;42.672;23.296;2022-07-23T10:09:27;94915.84;;;33.76;28.25
35892;BME280;21993;42.672;23.296;2022-07-23T10:11:55;94914.19;;;33.85;28.55
35892;BME280;21993;42.672;23.296;2022-07-23T10:14:25;94900.25;;;34.02;27.62
35892;BME280;21993;42.672;23.296;2022-07-23T10:16:53;94901.09;;;33.98;28.08
35892;BME280;21993;42.672;23.296;2022-07-23T10:19:19;94910.91;;;33.99;28.00
35892;BME280;21993;42.672;23.296;2022-07-23T10:21:54;94896.47;;;33.98;27.92
35892;BME280;21993;42.672;23.296;2022-07-23T10:30:28;94898.88;;;34.10;27.46
35892;BME280;21993;42.672;23.296;2022-07-23T10:35:41;94897.97;;;34.40;27.38
35892;BME280;21993;42.672;23.296;2022-07-23T10:38:27;94894.09;;;34.46;27.28
35892;BME280;21993;42.672;23.296;2022-07-23T10:41:00;94891.59;;;34.55;25.54
35892;BME280;21993;42.672;23.296;2022-07-23T10:43:27;94888.25;;;34.68;25.69
35892;BME280;21993;42.672;23.296;2022-07-23T10:45:53;94881.47;;;34.60;26.02
35892;BME280;21993;42.672;23.296;2022-07-23T10:48:24;94880.13;;;34.58;24.63
35892;BME280;21993;42.672;23.296;2022-07-23T10:51:10;94876.47;;;34.72;25.06
35892;BME280;21993;42.672;23.296;2022-07-23T10:53:59;94869.59;;;34.80;24.60
35892;BME280;21993;42.672;23.296;2022-07-23T10:59:24;94859.78;;;34.84;23.14
35892;BME280;21993;42.672;23.296;2022-07-23T11:01:50;94860.81;;;34.93;24.26
35892;BME280;21993;42.672;23.296;2022-07-23T11:04:15;94849.06;;;34.98;25.15
35892;BME280;21993;42.672;23.296;2022-07-23T11:09:42;94847.47;;;35.21;22.83
35892;BME280;21993;42.672;23.296;2022-07-23T11:14:58;94847.16;;;35.28;22.74
35892;BME280;21993;42.672;23.296;2022-07-23T11:17:25;94846.25;;;35.37;23.19
35892;BME280;21993;42.672;23.296;2022-07-23T11:25:14;94833.78;;;35.55;22.18
35892;BME280;21993;42.672;23.296;2022-07-23T11:27:53;94835.38;;;35.61;21.98
35892;BME280;21993;42.672;23.296;2022-07-23T11:35:40;94821.56;;;35.76;20.98
35892;BME280;21993;42.672;23.296;2022-07-23T11:38:28;94821.84;;;35.75;21.53
35892;BME280;21993;42.672;23.296;2022-07-23T11:40:54;94817.75;;;35.72;20.92
35892;BME280;21993;42.672;23.296;2022-07-23T11:43:21;94814.59;;;35.89;21.55
35892;BME280;21993;42.672;23.296;2022-07-23T11:45:52;94817.06;;;35.91;21.08
35892;BME280;21993;42.672;23.296;2022-07-23T11:48:21;94809.22;;;36.03;20.63
35892;BME280;21993;42.672;23.296;2022-07-23T11:50:47;94808.78;;;35.96;21.20
35892;BME280;21993;42.672;23.296;2022-07-23T11:53:13;94800.00;;;35.99;20.66
35892;BME280;21993;42.672;23.296;2022-07-23T11:55:39;94806.63;;;35.93;20.90
35892;BME280;21993;42.672;23.296;2022-07-23T11:58:04;94802.91;;;36.07;20.88
35892;BME280;21993;42.672;23.296;2022-07-23T12:00:31;94801.31;;;36.01;19.65
35892;BME280;21993;42.672;23.296;2022-07-23T12:02:59;94804.78;;;36.07;20.69
35892;BME280;21993;42.672;23.296;2022-07-23T12:05:31;94802.50;;;36.14;19.12
35892;BME280;21993;42.672;23.296;2022-07-23T12:07:57;94806.28;;;36.18;19.84
35892;BME280;21993;42.672;23.296;2022-07-23T12:10:26;94806.59;;;36.17;18.44
35892;BME280;21993;42.672;23.296;2022-07-23T12:12:59;94796.22;;;36.14;18.57
35892;BME280;21993;42.672;23.296;2022-07-23T12:15:27;94792.38;;;36.15;18.44
35892;BME280;21993;42.672;23.296;2022-07-23T12:17:54;94787.38;;;36.22;18.06
35892;BME280;21993;42.672;23.296;2022-07-23T12:20:26;94788.88;;;36.52;19.68
35892;BME280;21993;42.672;23.296;2022-07-23T12:22:56;94786.00;;;36.43;19.22
35892;BME280;21993;42.672;23.296;2022-07-23T12:25:24;94791.13;;;36.50;19.46
35892;BME280;21993;42.672;23.296;2022-07-23T12:33:05;94786.88;;;36.39;19.06
35892;BME280;21993;42.672;23.296;2022-07-23T12:35:42;94770.41;;;36.44;18.55
35892;BME280;21993;42.672;23.296;2022-07-23T12:38:14;94773.22;;;36.39;18.95
35892;BME280;21993;42.672;23.296;2022-07-23T12:43:18;94768.41;;;36.49;19.49
35892;BME280;21993;42.672;23.296;2022-07-23T12:45:53;94759.91;;;36.51;18.76
35892;BME280;21993;42.672;23.296;2022-07-23T12:48:59;94759.69;;;36.47;18.78
35892;BME280;21993;42.672;23.296;2022-07-23T12:51:28;94765.09;;;36.52;18.06
35892;BME280;21993;42.672;23.296;2022-07-23T12:56:30;94750.78;;;36.55;18.35
35892;BME280;21993;42.672;23.296;2022-07-23T12:59:17;94755.69;;;36.58;19.47
35892;BME280;21993;42.672;23.296;2022-07-23T13:01:43;94760.75;;;36.65;18.96
35892;BME280;21993;42.672;23.296;2022-07-23T13:04:22;94752.94;;;36.58;18.35
35892;BME280;21993;42.672;23.296;2022-07-23T13:06:58;94751.41;;;36.52;18.36
35892;BME280;21993;42.672;23.296;2022-07-23T13:09:28;94752.16;;;36.58;18.16
35892;BME280;21993;42.672;23.296;2022-07-23T13:11:55;94748.00;;;36.60;17.69
35892;BME280;21993;42.672;23.296;2022-07-23T13:14:21;94754.47;;;36.64;17.39
35892;BME280;21993;42.672;23.296;2022-07-23T13:16:49;94745.44;;;36.64;17.07
35892;BME280;21993;42.672;23.296;2022-07-23T13:19:15;94736.66;;;36.67;17.57
35892;BME280;21993;42.672;23.296;2022-07-23T13:21:41;94753.16;;;36.62;17.47
35892;BME280;21993;42.672;23.296;2022-07-23T13:24:08;94748.00;;;36.60;18.39
35892;BME280;21993;42.672;23.296;2022-07-23T13:26:34;94745.31;;;36.55;18.14
35892;BME280;21993;42.672;23.296;2022-07-23T13:29:00;94741.31;;;36.67;18.67
35892;BME280;21993;42.672;23.296;2022-07-23T13:31:25;94739.97;;;36.64;18.99
35892;BME280;21993;42.672;23.296;2022-07-23T13:33:50;94732.59;;;36.64;18.56
35892;BME280;21993;42.672;23.296;2022-07-23T13:39:38;94726.53;;;36.68;17.73
35892;BME280;21993;42.672;23.296;2022-07-23T13:42:03;94729.69;;;36.75;18.61
35892;BME280;21993;42.672;23.296;2022-07-23T13:44:29;94731.34;;;36.57;16.96
35892;BME280;21993;42.672;23.296;2022-07-23T13:46:54;94724.78;;;36.58;16.89
35892;BME280;21993;42.672;23.296;2022-07-23T13:49:19;94726.91;;;36.61;16.44